x

Southeast Papa - 600nm West Of Eureka, Ca (46006) Weather Station

1:20am - Thu 24th Aug 2017 All times are UTC.

  • Wind
    9mph, 13mph gusts
  • Sea Temp 69°f
  • Air Temp 65°f
  • Sea Pressure 1025.1mb

More Historic Weather Station data

Upgrade to MSW Pro to gain access to the past 30 days of data for over 8000 Wavebouys and Weather Stations around the globe.

Join

Comparision Forecast

View Surf forecast
   
Thu 08/24 1:20am  -   -   -  9 13 mph 1025.1mb 69f 65f
1:10am  -   -   -  11 13 mph 1025.2mb 69f 65f
1:00am  -   -   -  9 13 mph 1025.1mb - 65f
12:50am 5ft 8s 6s 11 13 mph 1025.1mb 69f 65f
12:40am 5ft  -  6s 11 13 mph 1025.2mb - 65f
12:30am  -   -   -  11 16 mph 1025.1mb 69f 65f
12:20am  -   -   -  11 13 mph 1025.1mb 69f 65f
12:10am  -   -   -  9 13 mph 1025.1mb 69f 65f
12:00am  -   -   -  11 13 mph 1025.1mb 69f 65f
Wed 08/23 11:50pm 4.5ft 10s 6s 11 13 mph 1025.1mb 69f 65f
11:40pm 4.5ft  -  6s 11 16 mph 1025.2mb 69f 65f
11:20pm  -   -   -  11 16 mph 1025.3mb 69f 65f
11:10pm  -   -   -  11 18 mph 1025.3mb 69f 65f
11:00pm  -   -   -  11 16 mph 1025.5mb - 65f
10:50pm 4.5ft 9s 6s 11 16 mph 1025.6mb 69f 65f
10:40pm 4.5ft  -  6s 11 16 mph 1025.5mb - 65f
10:30pm  -   -   -  11 16 mph 1025.4mb - -
10:20pm  -   -   -  11 16 mph 1025.4mb 69f 65f
10:10pm  -   -   -  11 16 mph 1025.4mb 69f 65f
10:00pm  -   -   -  11 16 mph 1025.3mb 69f 65f
9:50pm 4.5ft 10s 6s 11 16 mph 1025.2mb 69f 65f
9:40pm  -   -   -  13 18 mph 1025.2mb - 65f
9:30pm  -   -   -  13 18 mph 1025.2mb 69f 65f
9:20pm  -   -   -  13 16 mph 1025.2mb 69f 65f
9:10pm  -   -   -  13 18 mph 1025.3mb 69f 65f
9:00pm  -   -   -  13 18 mph 1025.4mb 69f 65f
8:50pm 4ft  -  5s 13 16 mph - - 65f
8:40pm 4ft  -  5s 13 18 mph 1025.5mb 69f 65f
8:30pm  -   -   -  13 18 mph 1025.6mb 69f 65f
8:20pm  -   -   -  13 18 mph 1025.7mb 69f 65f
8:10pm  -   -   -  13 16 mph 1025.7mb 69f 65f
8:00pm  -   -   -  13 18 mph 1025.7mb - 65f
7:50pm 4.5ft 10s 6s 13 18 mph 1025.7mb 69f 65f
7:40pm 4.5ft  -  6s 13 18 mph 1025.7mb 69f 65f
7:30pm  -   -   -  11 13 mph 1025.6mb 69f 65f
7:20pm  -   -   -  9 13 mph 1025.7mb 69f 65f
7:10pm  -   -   -  9 11 mph 1025.6mb 69f 65f
7:00pm  -   -   -  9 13 mph 1025.7mb 69f 65f
6:50pm 4.5ft 10s 6s 11 16 mph 1025.6mb - 65f
6:40pm 4.5ft  -  6s 11 16 mph 1025.5mb 69f 65f
6:30pm  -   -   -  11 16 mph 1025.5mb 69f 65f
6:20pm  -   -   -  11 16 mph 1025.6mb 69f 65f
6:10pm  -   -   -  11 16 mph 1025.6mb 69f 65f
6:00pm  -   -   -  13 16 mph 1025.6mb 69f 65f
5:50pm 4ft 9s 5s 13 18 mph 1025.5mb 69f 65f
5:40pm  -   -   -  11 13 mph 1025.5mb 69f 65f
5:30pm  -   -   -  11 16 mph 1025.5mb 69f 65f
5:20pm  -   -   -  13 16 mph 1025.5mb 69f 65f
5:10pm  -   -   -  11 16 mph 1025.5mb 69f 65f
5:00pm  -   -   -  11 16 mph 1025.4mb - 65f
4:50pm 4.5ft 10s 5s 11 13 mph 1025.5mb 69f 65f
4:40pm 4.5ft  -  5s 11 13 mph 1025.5mb 69f 65f
4:30pm  -   -   -  11 13 mph 1025.4mb 69f 65f
4:20pm  -   -   -  9 13 mph 1025.4mb 69f 65f
4:10pm  -   -   -  9 13 mph 1025.4mb 69f 65f
4:00pm  -   -   -  11 13 mph 1025.2mb 69f 65f
3:50pm 4.5ft 6s 5s 13 18 mph 1025.1mb 69f 65f
3:40pm 4.5ft  -  5s 13 18 mph 1025.1mb - 65f
3:30pm  -   -   -  11 16 mph 1025.1mb 69f 65f
3:20pm  -   -   -  13 18 mph 1025.1mb 69f 65f
3:10pm  -   -   -  13 16 mph 1024.9mb 69f 65f
3:00pm  -   -   -  13 18 mph 1024.9mb 69f 65f
2:50pm 4.5ft 6s 5s 11 16 mph 1024.8mb 69f 65f
2:40pm 4.5ft  -  5s 9 13 mph 1024.8mb 69f 65f
2:30pm  -   -   -  11 13 mph 1024.8mb 69f 65f
2:20pm  -   -   -  11 16 mph 1024.7mb 69f 65f
2:10pm  -   -   -  13 18 mph 1024.5mb 69f 65f
2:00pm  -   -   -  11 16 mph 1024.4mb - 65f
1:50pm 4.5ft 9s 5s 11 16 mph 1024.3mb 69f 65f
1:40pm 4.5ft  -  5s 13 18 mph 1024.2mb 69f 65f
1:30pm  -   -   -  16 20 mph 1024.1mb 69f 65f
1:20pm  -   -   -  16 20 mph 1024mb 69f 65f
1:10pm  -   -   -  16 20 mph 1024mb 69f 65f
1:00pm  -   -   -  13 18 mph 1024mb 69f 65f
12:50pm 4.5ft 6s 5s 13 18 mph 1024mb 69f 65f
12:40pm 4.5ft  -  5s 13 20 mph 1023.9mb 69f 65f
12:30pm  -   -   -  13 18 mph 1024mb 69f 65f
12:20pm  -   -   -  16 20 mph 1023.9mb 69f 65f
12:10pm  -   -   -  13 18 mph 1023.9mb 69f 65f
12:00pm  -   -   -  13 18 mph 1024mb 69f 65f
11:50am 4ft 5s 5s 13 18 mph 1024mb 69f 65f
11:40am 4ft  -  5s 13 18 mph 1024.1mb 69f 65f
11:30am  -   -   -  13 16 mph 1024.2mb 69f 65f
11:20am  -   -   -  11 16 mph 1024.1mb 69f 65f
11:10am  -   -   -  9 13 mph 1024.1mb 69f 65f
11:00am  -   -   -  7 11 mph 1024.1mb 69f 65f
10:50am 4ft 5s 5s 9 13 mph 1024.1mb 69f 65f
10:40am 4ft  -  5s 11 18 mph 1024.1mb 69f 65f
10:30am  -   -   -  11 13 mph 1024.1mb 69f 65f
10:20am  -   -   -  11 13 mph 1024.1mb 69f 65f
10:10am  -   -   -  11 16 mph 1024mb 69f 65f
10:00am  -   -   -  13 18 mph 1024.1mb 69f 65f
9:50am 4.5ft 11s 5s 13 20 mph 1024mb 69f 65f
9:40am 4.5ft  -  5s 16 18 mph 1024mb 69f 65f
9:30am  -   -   -  16 20 mph 1024mb 69f 65f
9:20am  -   -   -  16 20 mph 1024.1mb 69f 65f
9:10am  -   -   -  16 20 mph 1024.1mb 69f 65f
9:00am  -   -   -  16 20 mph 1024.1mb 69f 65f
8:50am 4ft 5s 5s 16 18 mph 1024.1mb 69f 66f
8:40am 4ft  -  5s 16 20 mph 1024.2mb 69f 65f
8:30am  -   -   -  16 20 mph 1024.1mb 69f 65f
8:20am  -   -   -  16 20 mph 1024.1mb - 65f
8:10am  -   -   -  16 25 mph 1024.1mb 69f 65f
8:00am  -   -   -  16 25 mph 1024.1mb 69f 65f
7:50am 4ft 9s 5s 16 22 mph 1024.1mb 69f 65f
7:40am 4ft  -  5s 16 20 mph 1024mb 69f 65f
7:30am  -   -   -  16 20 mph 1024mb 69f 65f
7:20am  -   -   -  16 20 mph 1024mb 69f 65f
7:10am  -   -   -  16 18 mph 1024.1mb 69f 65f
7:00am  -   -   -  16 20 mph 1024mb 69f 65f
6:50am 3.5ft 11s 5s 16 20 mph 1024.1mb 69f 65f
6:40am  -   -   -  13 16 mph 1024.1mb 69f 64f
6:30am  -   -   -  13 18 mph 1024.1mb 69f 64f
6:20am  -   -   -  16 18 mph 1024mb 69f 64f
6:10am  -   -   -  16 20 mph 1024mb 69f 64f
6:00am  -   -   -  16 20 mph 1023.9mb 69f 65f
5:50am 3.5ft 11s 5s 16 20 mph 1023.9mb 69f 65f
5:40am 3.5ft  -  5s 18 20 mph 1023.9mb 69f 65f
5:30am  -   -   -  16 22 mph 1023.7mb 69f 65f
5:20am  -   -   -  16 22 mph 1023.7mb 69f 65f
5:10am  -   -   -  16 22 mph 1023.6mb 69f 65f
5:00am  -   -   -  16 22 mph 1023.6mb - 65f
4:50am 4ft 11s 5s 16 20 mph 1023.5mb 69f 65f
4:40am 4ft  -  5s 16 20 mph 1023.3mb 69f 65f
4:30am  -   -   -  18 20 mph 1023.1mb - 65f
4:20am  -   -   -  16 20 mph 1023mb 69f 65f
4:10am  -   -   -  18 20 mph 1023mb 69f 65f
4:00am  -   -   -  18 20 mph 1022.9mb 69f 65f
3:50am 4ft 12s 5s 18 20 mph 1023mb 69f 65f
3:40am  -   -   -  18 20 mph 1022.9mb 69f 65f
3:30am  -   -   -  18 22 mph 1022.8mb 69f 65f
3:20am  -   -   -  18 20 mph 1022.9mb 69f 65f
3:10am  -   -   -  18 20 mph 1022.8mb 69f 65f
3:00am  -   -   -  18 20 mph 1022.9mb - 66f
2:50am 4ft 4s 5s 18 22 mph 1022.7mb 69f 66f
2:40am  -   -   -  18 22 mph 1022.7mb 69f 66f
2:30am  -   -   -  18 22 mph 1022.8mb 69f 66f
2:20am  -   -   -  20 25 mph 1022.7mb 69f 65f
2:10am  -   -   -  18 22 mph 1022.7mb 69f 66f
2:00am  -   -   -  18 22 mph 1022.6mb - 65f
1:50am 3.5ft 11s 5s 20 25 mph 1022.4mb 69f 65f
1:40am 3.5ft  -  5s 18 22 mph 1022.3mb 69f 65f
1:30am  -   -   -  18 22 mph 1022.1mb 69f 65f
1:20am  -   -   -  20 25 mph 1022.1mb 69f 66f
1:10am  -   -   -  20 25 mph 1022.1mb 69f 66f
1:00am  -   -   -  20 25 mph 1022mb 69f 66f
12:50am 3.5ft 11s 5s 20 22 mph 1022mb 69f 66f
12:40am 3.5ft  -  5s 20 25 mph 1021.9mb 69f 66f
12:30am  -   -   -  20 25 mph 1021.9mb 69f 65f
12:20am  -   -   -  20 25 mph 1021.7mb 69f 66f
12:10am  -   -   -  20 25 mph 1021.8mb 69f 66f
12:00am  -   -   -  20 25 mph 1021.8mb 69f 67f
Tue 08/22 11:50pm 3.5ft 11s 6s 18 22 mph 1021.9mb 69f 68f
11:40pm 3.5ft  -  6s  -  9 mph 1021.8mb 69f 71f
11:20pm  -   -   -  2 4 mph 1021.9mb 69f 70f
11:10pm  -   -   -  4 7 mph 1022mb 69f 70f
11:00pm  -   -   -  4 7 mph 1022.1mb 69f 70f
10:50pm 3.5ft 13s 5s 2 4 mph 1022.2mb 69f 70f
10:40pm 3.5ft  -  5s 2 7 mph 1022.3mb 69f 70f
10:30pm  -   -   -  4 7 mph 1022.3mb 69f 70f
10:20pm  -   -   -  2 4 mph 1022.4mb 70f 69f
10:10pm  -   -   -  2 4 mph 1022.4mb 69f 69f
10:00pm  -   -   -  2 4 mph 1022.4mb 69f 69f
9:50pm 3.5ft 12s 5s 2 4 mph 1022.4mb 69f 69f
9:40pm 3.5ft  -  5s 2 4 mph 1022.4mb 70f 69f
9:30pm  -   -   -  2 4 mph 1022.4mb 70f 69f
9:20pm  -   -   -  4 9 mph 1022.4mb 70f 70f
9:10pm  -   -   -  7 9 mph 1022.4mb 69f 70f
9:00pm  -   -   -  7 9 mph 1022.5mb 69f 70f
8:50pm 3.5ft 11s 5s 7 9 mph 1022.6mb 69f 70f
8:40pm 3.5ft  -  5s 7 9 mph 1022.5mb 69f 70f
7:40pm  -   -   -  7 11 mph 1022.7mb 69f 69f
7:30pm  -   -   -  9 11 mph 1022.7mb 69f 69f
7:20pm  -   -   -  9 11 mph 1022.7mb 69f 69f
7:10pm  -   -   -  11 13 mph 1022.7mb 69f 69f
7:00pm  -   -   -  11 13 mph 1022.6mb 69f 69f
6:50pm 3.5ft 13s 5s 9 13 mph 1022.6mb 69f 69f
6:40pm 3.5ft  -  5s 11 13 mph 1022.6mb 69f 69f
6:30pm  -   -   -  11 13 mph 1022.6mb 69f 69f
6:20pm  -   -   -  11 13 mph 1022.6mb 69f 69f
6:10pm  -   -   -  11 16 mph 1022.5mb 69f 69f
6:00pm  -   -   -  13 16 mph 1022.4mb 69f 69f
5:50pm 4ft 12s 5s 13 16 mph 1022.4mb 69f 69f
5:40pm 4ft  -  5s 13 16 mph 1022.2mb 69f 69f
5:30pm  -   -   -  13 16 mph 1022.2mb 69f 69f
5:20pm  -   -   -  13 18 mph 1022.1mb 69f 69f
5:10pm  -   -   -  13 18 mph 1022.1mb 69f 69f
5:00pm  -   -   -  16 20 mph 1022.1mb 69f 69f
4:50pm 3.5ft 10s 5s 16 18 mph 1022.1mb 69f 69f
4:40pm 3.5ft  -  5s 13 18 mph 1022.1mb 69f 69f
4:30pm  -   -   -  16 20 mph 1022.2mb 69f 69f
4:20pm  -   -   -  16 18 mph 1022.2mb 69f 69f
4:10pm  -   -   -  13 18 mph 1022.2mb 69f 69f
4:00pm  -   -   -  16 20 mph 1022.2mb 69f 69f
3:50pm 3.5ft 11s 5s 16 18 mph 1022.2mb 69f 69f
3:40pm 3.5ft  -  5s 13 16 mph 1022.1mb 69f 69f
3:30pm  -   -   -  13 16 mph 1022mb 69f 69f
3:20pm  -   -   -  11 16 mph 1022mb 69f 69f
3:10pm  -   -   -  13 16 mph 1021.9mb 69f 69f
3:00pm  -   -   -  13 20 mph 1021.9mb 69f 69f
2:50pm 3.5ft 11s 5s 16 20 mph 1021.9mb 69f 69f
2:40pm 3.5ft  -  5s 13 16 mph 1021.8mb 69f 69f
2:30pm  -   -   -  13 16 mph 1021.7mb 69f 69f
2:20pm  -   -   -  13 16 mph 1021.7mb 69f 69f
2:10pm  -   -   -  13 16 mph 1021.6mb 69f 69f
2:00pm  -   -   -  13 16 mph 1021.6mb 69f 69f
1:50pm 3.5ft 13s 5s 13 16 mph 1021.6mb 69f 69f
1:40pm 3.5ft  -  5s 13 18 mph 1021.6mb 69f 69f
1:30pm  -   -   -  13 18 mph 1021.6mb 69f 69f
1:20pm  -   -   -  13 18 mph 1021.5mb 69f 69f
1:10pm  -   -   -  16 18 mph 1021.4mb 69f 69f
1:00pm  -   -   -  16 18 mph 1021.4mb - 69f
12:50pm 4ft 11s 5s 16 20 mph 1021.4mb - 69f
12:40pm 4ft  -  5s 16 18 mph 1021.4mb - 69f
12:30pm  -   -   -  16 20 mph 1021.5mb 69f 69f
12:20pm  -   -   -  16 18 mph 1021.6mb 69f 69f
12:10pm  -   -   -  16 18 mph 1021.6mb 69f 69f
12:00pm  -   -   -  13 18 mph 1021.6mb 69f 69f
11:50am 3.5ft 13s 6s 13 18 mph 1021.7mb 69f 69f
11:40am 3.5ft  -  6s 13 18 mph 1021.7mb 69f 69f
11:30am  -   -   -  13 18 mph 1021.8mb 69f 69f
11:20am  -   -   -  13 16 mph 1021.9mb 69f 69f
11:10am  -   -   -  16 18 mph 1021.9mb 69f 69f
11:00am  -   -   -  13 18 mph 1021.9mb 69f 69f
10:50am 3.5ft 13s 5s 13 18 mph 1021.9mb - 69f
10:40am 3.5ft  -  5s 13 16 mph 1021.8mb 69f 69f
10:30am  -   -   -  13 16 mph 1022mb 69f 69f
10:20am  -   -   -  13 16 mph 1022.1mb 69f 69f
10:10am  -   -   -  13 16 mph 1022.1mb 69f 69f
10:00am  -   -   -  13 16 mph 1022.2mb 69f 69f
9:50am 3.5ft 12s 6s 13 16 mph 1022.2mb 69f 69f
9:40am 3.5ft  -  6s 13 16 mph 1022.3mb 69f 69f
9:30am  -   -   -  11 13 mph 1022.4mb - 69f
9:20am  -   -   -  11 16 mph 1022.4mb 69f 69f
9:10am  -   -   -  13 16 mph 1022.4mb 69f 69f
9:00am  -   -   -  13 16 mph 1022.5mb 69f 69f
8:50am 3.5ft 12s 6s 13 16 mph 1022.5mb 69f 69f
8:40am 3.5ft  -  6s 13 16 mph 1022.5mb 69f 69f
8:30am  -   -   -  13 16 mph 1022.6mb - 69f
8:20am  -   -   -  13 16 mph 1022.6mb 69f 69f
8:10am  -   -   -  11 16 mph 1022.6mb 69f 69f
8:00am  -   -   -  11 16 mph 1022.7mb 69f 69f
7:50am 3.5ft 13s 6s 11 13 mph 1022.8mb 69f 69f
7:40am 3.5ft  -  6s 13 16 mph 1022.9mb 69f 69f
7:30am  -   -   -  13 16 mph 1022.9mb 69f 69f
7:20am  -   -   -  11 13 mph 1022.9mb 69f 69f
7:10am  -   -   -  11 16 mph 1023mb 69f 69f
7:00am  -   -   -  11 13 mph 1023.2mb 69f 69f
6:50am 3.5ft 13s 6s 11 13 mph 1023.2mb 69f 69f
6:40am 3.5ft  -  6s 11 13 mph 1023.2mb 69f 69f
6:30am  -   -   -  11 16 mph 1023.2mb 69f 69f
6:20am  -   -   -  11 16 mph 1023.2mb 69f 69f
6:10am  -   -   -  11 13 mph 1023.3mb 69f 69f
6:00am  -   -   -  13 16 mph 1023.3mb 69f 69f
5:50am 3.5ft 13s 6s 13 16 mph 1023.5mb 69f 69f
5:40am 3.5ft  -  6s 13 16 mph 1023.4mb 69f 69f
5:30am  -   -   -  11 16 mph 1023.5mb 69f 69f
5:20am  -   -   -  11 13 mph 1023.5mb 69f 69f
5:10am  -   -   -  11 16 mph 1023.4mb 69f 69f
5:00am  -   -   -  11 16 mph 1023.4mb 69f 69f
4:50am 3.5ft 12s 5s 11 13 mph 1023.3mb 69f 69f
4:40am 3.5ft  -  5s 13 16 mph 1023.2mb 69f 69f
4:30am  -   -   -  13 16 mph 1023.1mb 69f 69f
4:20am  -   -   -  13 16 mph 1023.2mb 69f 69f
4:10am  -   -   -  13 16 mph 1023.2mb 69f 69f
4:00am  -   -   -  13 16 mph 1023.2mb 69f 69f
3:50am 3.5ft 13s 6s 13 16 mph 1023.2mb 69f 69f
3:40am 3.5ft  -  6s 13 16 mph 1023.2mb 69f 69f
3:30am  -   -   -  13 16 mph 1023.2mb 69f 69f
3:20am  -   -   -  13 16 mph 1023.2mb 69f 69f
3:10am  -   -   -  11 13 mph 1023.2mb 69f 69f
3:00am  -   -   -  11 13 mph 1023.2mb 69f 68f
2:50am 3.5ft 12s 6s 11 16 mph 1023.3mb 69f 68f
2:40am 3.5ft  -  6s 13 16 mph 1023.2mb 69f 68f
2:30am  -   -   -  11 13 mph 1023.3mb 69f 68f
2:20am  -   -   -  13 16 mph 1023.4mb 69f 68f
2:10am  -   -   -  13 16 mph 1023.3mb 69f 68f
2:00am  -   -   -  11 13 mph 1023.4mb 69f 68f
1:50am 3.5ft 13s 6s 11 16 mph 1023.5mb 69f 68f
1:40am 3.5ft  -  6s 13 16 mph 1023.5mb 69f 68f
1:30am  -   -   -  13 16 mph 1023.5mb 69f 68f
1:20am  -   -   -  13 16 mph 1023.7mb 69f 68f
1:10am  -   -   -  13 16 mph 1023.7mb 69f 68f
1:00am  -   -   -  13 16 mph 1023.7mb 69f 68f
12:50am 3ft 13s 6s 13 16 mph 1023.7mb 69f 68f
12:40am  -   -   -  13 16 mph 1023.8mb 69f 68f
12:30am 3ft  -  6s 13 16 mph 1023.7mb 69f 68f
12:20am  -   -   -  11 16 mph 1023.7mb 69f 69f
12:10am  -   -   -  11 13 mph 1023.9mb 69f 69f
12:00am  -   -   -  11 13 mph 1024mb 69f 69f
Mon 08/21 11:50pm 3.5ft 12s 8s 9 11 mph 1024mb 69f 69f
11:40pm 3.5ft  -  8s 9 11 mph 1024mb 69f 69f
11:20pm  -   -   -  9 13 mph 1024.3mb 69f 69f
11:10pm  -   -   -  9 11 mph 1024.3mb 69f 69f
11:00pm  -   -   -  9 11 mph 1024.4mb 69f 69f
10:50pm 4ft 13s 8s 11 13 mph 1024.4mb 69f 68f
10:40pm 4ft  -  8s 11 13 mph 1024.5mb 69f 68f
10:30pm  -   -   -  9 11 mph 1024.6mb 69f 68f
10:20pm  -   -   -  9 11 mph 1024.7mb 69f 68f
10:10pm  -   -   -  9 11 mph 1024.8mb 69f 68f
10:00pm  -   -   -  7 9 mph 1024.9mb 69f 68f
9:50pm 3.5ft 13s 7s 7 9 mph 1024.9mb 69f 68f
9:40pm 3.5ft  -  7s 7 9 mph 1025mb 69f 68f
9:30pm  -   -   -  7 9 mph 1025.2mb 69f 68f
9:20pm  -   -   -  7 9 mph 1025.2mb 69f 68f
9:10pm  -   -   -  4 7 mph 1025.2mb 69f 68f
9:00pm  -   -   -  2 4 mph 1025.2mb 69f 68f
8:50pm 3.5ft 13s 7s 2 4 mph 1025.4mb 69f 67f
8:40pm 3.5ft  -  7s 4 7 mph 1025.5mb 69f 67f
8:30pm  -   -   -  7 11 mph 1025.6mb 69f 67f
8:20pm  -   -   -  11 13 mph 1025.6mb 69f 66f
8:10pm  -   -   -  11 13 mph - 69f 66f
8:00pm  -   -   -  11 13 mph 1025.7mb 69f 67f
7:50pm 4ft 14s 8s 9 13 mph 1025.8mb - 68f
7:40pm 4ft  -  8s 9 13 mph 1025.7mb 69f 67f
7:30pm  -   -   -  9 13 mph 1025.7mb - 68f
7:20pm  -   -   -  7 9 mph 1025.7mb 69f 68f
7:10pm  -   -   -  9 11 mph 1025.7mb 69f 68f
7:00pm  -   -   -  9 11 mph 1025.8mb 69f 68f
6:50pm 3.5ft 13s 7s 9 11 mph 1025.8mb 69f 68f
6:40pm 3.5ft  -  7s 9 11 mph 1025.8mb 69f 68f
6:30pm  -   -   -  7 11 mph 1025.9mb 69f 68f
6:20pm  -   -   -  7 9 mph 1025.9mb 69f 68f
6:10pm  -   -   -  9 11 mph 1025.8mb 69f 68f
6:00pm  -   -   -  7 9 mph 1025.9mb 69f 68f
5:50pm 4ft 8s 8s 4 9 mph 1025.9mb 69f 68f
5:40pm  -   -   -  7 9 mph 1025.9mb 69f 68f
5:30pm  -   -   -  4 9 mph 1025.9mb 69f 68f
5:20pm  -   -   -  7 9 mph 1025.9mb 69f 68f
5:10pm  -   -   -  9 13 mph 1025.9mb 69f 68f
5:00pm  -   -   -  7 11 mph 1025.9mb 69f 68f
4:50pm 4ft 14s 8s 7 9 mph 1025.9mb 69f 68f
4:40pm 4ft  -  8s 7 11 mph 1026mb 69f 68f
4:30pm  -   -   -  4 11 mph 1025.9mb 69f 68f
4:20pm  -   -   -  4 9 mph 1025.9mb 69f 68f
4:10pm  -   -   -  4 9 mph 1025.9mb 69f 68f
4:00pm  -   -   -  9 11 mph 1025.9mb 69f 68f
3:50pm 3.5ft 14s 8s 9 13 mph 1025.9mb 69f 68f
3:40pm  -   -   -  7 11 mph 1025.9mb 69f 68f
3:30pm  -   -   -  4 9 mph 1025.7mb 69f 68f
3:20pm  -   -   -  4 4 mph 1025.7mb 69f 68f
3:10pm  -   -   -  4 7 mph 1025.6mb 69f 68f
3:00pm  -   -   -  7 9 mph 1025.6mb 69f 68f
2:50pm 3.5ft 9s 8s 7 11 mph 1025.6mb 69f 68f
2:40pm 3.5ft  -  8s 7 9 mph 1025.6mb 69f 68f
2:30pm  -   -   -  4 9 mph 1025.7mb - 68f
2:20pm  -   -   -  4 7 mph 1025.6mb 69f 68f
2:10pm  -   -   -  2 7 mph 1025.6mb 69f 68f
2:00pm  -   -   -  4 9 mph 1025.6mb 69f 68f
1:50pm 4ft 14s 8s 7 13 mph 1025.5mb 69f 68f
1:40pm  -   -   -  7 9 mph 1025.6mb - 68f
1:30pm  -   -   -  7 9 mph 1025.6mb 69f 68f
1:20pm  -   -   -  7 11 mph 1025.6mb 69f 68f
1:10pm  -   -   -  7 11 mph 1025.5mb 69f 68f
1:00pm  -   -   -  7 13 mph 1025.4mb 69f 68f
12:50pm 3.5ft 9s 8s 7 13 mph 1025.5mb 70f 68f
12:40pm 3.5ft  -  8s 9 13 mph 1025.4mb 70f 68f
12:30pm  -   -   -  9 11 mph 1025.5mb 70f 68f
12:20pm  -   -   -  9 11 mph - 70f 69f
12:10pm  -   -   -  7 11 mph 1025.5mb 69f 69f
12:00pm  -   -   -  7 11 mph 1025.5mb 70f 69f
11:50am 3.5ft 14s 8s 7 11 mph 1025.5mb 70f 69f
11:40am 3.5ft  -  8s 7 9 mph 1025.6mb 70f 69f
11:30am  -   -   -  9 11 mph 1025.7mb 70f 69f
11:20am  -   -   -  4 7 mph 1025.7mb 70f 68f
11:10am  -   -   -  2 4 mph 1025.8mb 70f 68f
11:00am  -   -   -  4 9 mph 1025.9mb 70f 68f
10:50am 4ft 14s 9s 7 9 mph 1026mb 70f 68f
10:40am 4ft  -  9s 7 9 mph 1026.1mb 70f 68f
10:30am  -   -   -  4 7 mph 1026.2mb 70f 68f
10:20am  -   -   -  4 9 mph 1026.2mb 70f 68f
10:10am  -   -   -  4 7 mph 1026.2mb 70f 68f
10:00am  -   -   -  4 7 mph 1026.2mb 70f 68f
9:50am 3.5ft 14s 8s 4 7 mph 1026.3mb 70f 68f
9:40am  -   -   -  4 7 mph 1026.3mb 70f 68f
9:30am  -   -   -  4 7 mph 1026.3mb 70f 68f
9:20am  -   -   -  4 7 mph 1026.4mb 70f 68f
9:10am  -   -   -  4 7 mph 1026.5mb 70f 68f
9:00am  -   -   -  4 7 mph 1026.5mb 70f 68f
8:50am 4ft 15s 8s 4 7 mph 1026.5mb 70f 68f
8:40am 4ft  -  8s 4 7 mph 1026.5mb 70f 68f
8:30am  -   -   -  4 7 mph 1026.6mb 70f 68f
8:20am  -   -   -  4 7 mph 1026.5mb 70f 68f
8:10am  -   -   -  4 7 mph 1026.5mb 70f 68f
8:00am  -   -   -  4 7 mph 1026.5mb 70f 68f
7:50am  -   -   -  4 7 mph 1026.6mb 70f 68f
7:40am  -   -   -  4 7 mph 1026.7mb 70f 68f
7:30am  -   -   -  4 4 mph 1026.8mb 70f 68f
7:20am  -   -   -  4 4 mph 1026.8mb 70f 68f
7:10am  -   -   -  4 7 mph 1026.8mb 70f 68f
7:00am  -   -   -  4 7 mph 1026.8mb 70f 68f
6:50am 4ft 14s 9s 4 7 mph 1026.9mb - 68f
6:40am 4ft  -  9s 4 4 mph 1026.9mb 70f 68f
6:30am  -   -   -  4 7 mph 1026.9mb - 68f
6:20am  -   -   -  4 7 mph 1027mb 70f 68f
6:10am  -   -   -  4 9 mph 1027mb 70f 68f
6:00am  -   -   -  7 9 mph 1027mb 70f 68f
5:50am 4.5ft 10s 8s 7 9 mph 1027mb 70f 69f
5:40am 4.5ft  -  8s 7 11 mph 1026.9mb 70f 69f
5:30am  -   -   -  4 9 mph 1026.9mb 70f 69f
5:20am  -   -   -  4 7 mph 1026.9mb 70f 68f
5:10am  -   -   -  4 7 mph 1026.9mb 70f 68f
5:00am  -   -   -  2 4 mph 1026.8mb 70f 68f
4:50am 4.5ft 15s 8s 4 4 mph 1026.7mb 70f 68f
4:40am 4.5ft  -  8s 4 9 mph 1026.6mb 70f 68f
4:30am  -   -   -  4 7 mph 1026.5mb 70f 68f
4:20am  -   -   -  2 4 mph 1026.4mb 70f 68f
4:10am  -   -   -  2 4 mph 1026.4mb 70f 68f
4:00am  -   -   -  2 4 mph 1026.4mb 70f 68f
3:50am 4.5ft 14s 8s 2 4 mph 1026.4mb 71f 68f
3:40am 4.5ft  -  8s 4 7 mph 1026.4mb 70f 68f
3:30am  -   -   -  4 4 mph 1026.5mb 71f 68f
3:20am  -   -   -  4 7 mph 1026.4mb 71f 68f
3:10am  -   -   -  4 7 mph 1026.4mb 71f 68f
3:00am  -   -   -  7 9 mph 1026.4mb 70f 69f
2:50am 4.5ft 9s 8s 7 9 mph 1026.4mb 70f 68f
2:40am 4.5ft  -  8s 4 9 mph 1026.4mb 70f 68f
2:30am  -   -   -  4 4 mph 1026.4mb 70f 68f
2:20am  -   -   -  4 7 mph 1026.4mb 70f 68f
2:10am  -   -   -  2 4 mph 1026.4mb 70f 68f
2:00am  -   -   -  4 7 mph 1026.5mb 70f 68f
1:50am 4.5ft 14s 8s 2 7 mph 1026.5mb 70f 68f
1:20am  -   -   -   -  2 mph 1026.5mb 69f 69f
1:10am  -   -   -  2 4 mph 1026.5mb 69f 69f
1:00am  -   -   -  2 4 mph 1026.5mb 69f 69f
12:50am 5ft 10s 9s 2 4 mph 1026.6mb 69f 69f
12:40am  -   -   -  2 4 mph 1026.6mb 69f 69f
12:30am  -   -   -  2 4 mph 1026.7mb 69f 69f
12:20am  -   -   -  2 4 mph 1026.7mb - 68f
12:10am  -   -   -  2 7 mph 1026.8mb 69f 68f
12:00am  -   -   -  4 7 mph 1026.9mb 69f 68f
Sun 08/20 11:50pm 4.5ft 9s 8s 4 7 mph 1026.9mb 69f 68f
11:40pm 4.5ft  -  8s 4 7 mph 1027mb 69f 68f
11:20pm  -   -   -  4 7 mph 1027mb 69f 68f
11:10pm  -   -   -   -  4 mph 1027.1mb 69f 69f
11:00pm  -   -   -   -  0 mph 1027.2mb 69f 69f
10:50pm 4.5ft 9s 8s  -  2 mph 1027.3mb 69f 68f
10:40pm 4.5ft  -  8s 2 4 mph 1027.4mb 69f 68f
10:30pm  -   -   -  4 7 mph 1027.5mb 69f 68f
10:20pm  -   -   -  4 7 mph 1027.5mb - 68f
10:10pm  -   -   -  2 4 mph 1027.6mb 69f 68f
10:00pm  -   -   -  4 9 mph 1027.6mb - 68f
9:50pm 4.5ft 15s 8s 4 9 mph 1027.7mb 69f 68f
9:40pm 4.5ft  -  8s 2 4 mph 1027.8mb 69f 68f
9:30pm  -   -   -  2 4 mph 1027.9mb 69f 68f
9:20pm  -   -   -  4 7 mph 1027.9mb 69f 68f
9:10pm  -   -   -  2 7 mph 1028mb 69f 68f
9:00pm  -   -   -  2 4 mph 1028.1mb 69f 68f
8:50pm 4ft 9s 8s 2 4 mph 1028mb 69f 68f
8:40pm 4ft  -  8s 2 4 mph 1028.1mb 69f 68f
8:30pm  -   -   -  2 4 mph 1028.1mb 69f 68f
8:20pm  -   -   -  2 4 mph 1028.1mb 69f 67f
8:10pm  -   -   -  2 4 mph 1028.1mb 69f 67f
8:00pm  -   -   -  2 4 mph 1028.2mb 69f 67f
7:50pm 4.5ft 14s 8s 2 4 mph 1028.3mb 69f 68f
7:40pm 4.5ft  -  8s 2 4 mph 1028.4mb 69f 68f
7:30pm  -   -   -   -  2 mph 1028.4mb 69f 68f
7:20pm  -   -   -   -  2 mph 1028.4mb 69f 67f
7:10pm  -   -   -  2 7 mph 1028.4mb 69f 67f
7:00pm  -   -   -  7 9 mph 1028.5mb 69f 67f
6:50pm 4.5ft 11s 8s 7 9 mph 1028.6mb 69f 66f
6:40pm 4.5ft  -  8s 9 13 mph 1028.6mb 69f 66f
6:30pm  -   -   -  9 13 mph 1028.6mb 69f 66f
6:20pm  -   -   -  11 16 mph 1028.7mb 69f 66f
6:10pm  -   -   -  11 16 mph 1028.6mb 69f 67f
6:00pm  -   -   -  4 9 mph 1028.6mb 69f 67f
5:50pm 4.5ft 15s 8s 4 9 mph 1028.5mb 69f 67f
5:40pm 4.5ft  -  8s 7 9 mph 1028.5mb 69f 67f
5:30pm  -   -   -  4 9 mph 1028.5mb 69f 67f
5:20pm  -   -   -  4 7 mph 1028.5mb 69f 67f
5:10pm  -   -   -  7 11 mph 1028.5mb 69f 67f
5:00pm  -   -   -  7 13 mph 1028.6mb 69f 67f
4:50pm 4.5ft 15s 8s 7 13 mph 1028.6mb 69f 67f
4:40pm 4.5ft  -  8s 7 11 mph 1028.6mb 69f 67f
4:30pm  -   -   -  4 7 mph 1028.6mb 69f 67f
4:20pm  -   -   -  4 9 mph 1028.6mb 69f 67f
4:10pm  -   -   -  7 9 mph 1028.6mb 69f 67f
4:00pm  -   -   -  7 9 mph 1028.6mb 69f 67f
3:50pm 4.5ft 15s 8s 7 9 mph 1028.5mb 69f 67f
3:40pm 4.5ft  -  8s 7 9 mph 1028.5mb 69f 67f
3:30pm  -   -   -  7 11 mph 1028.5mb 69f 67f
3:20pm  -   -   -  7 9 mph 1028.5mb 69f 67f
3:10pm  -   -   -  4 7 mph 1028.6mb 69f 66f
3:00pm  -   -   -  9 13 mph 1028.5mb 69f 67f
2:50pm 4.5ft 14s 8s 7 11 mph 1028.4mb 69f 67f
2:40pm 4.5ft  -  8s 4 7 mph 1028.3mb 69f 66f
2:30pm  -   -   -  4 7 mph 1028.2mb 69f 66f
2:20pm  -   -   -  4 9 mph 1028mb 69f 66f
2:10pm  -   -   -  4 7 mph 1027.9mb 69f 66f
2:00pm  -   -   -  7 13 mph 1027.9mb 69f 66f
1:50pm 4.5ft 14s 8s 7 11 mph 1027.9mb 69f 67f
1:40pm 4.5ft  -  8s 4 9 mph 1027.9mb 69f 66f
1:30pm  -   -   -  7 13 mph 1027.9mb 69f 66f
1:20pm  -   -   -  7 11 mph 1027.9mb 69f 67f
1:10pm  -   -   -  7 11 mph 1027.9mb 69f 67f
1:00pm  -   -   -  9 11 mph 1027.9mb 69f 67f
12:50pm 4.5ft 15s 8s 7 9 mph 1027.9mb 69f 67f
12:40pm 4.5ft  -  8s 7 11 mph 1027.9mb 69f 67f
12:30pm  -   -   -  4 11 mph 1027.9mb 69f 67f
12:20pm  -   -   -  4 9 mph 1028mb 69f 67f
12:10pm  -   -   -  7 11 mph 1028.1mb 69f 67f
12:00pm  -   -   -  7 11 mph 1028.1mb 69f 67f
11:50am 4.5ft 15s 8s 7 11 mph 1028.2mb 69f 67f
11:40am 4.5ft  -  8s 4 9 mph 1028.3mb 69f 67f
11:30am  -   -   -  4 9 mph 1028.3mb 69f 67f
11:20am  -   -   -  4 7 mph 1028.3mb 70f 67f
11:10am  -   -   -  2 7 mph 1028.4mb 70f 67f
11:00am  -   -   -  9 11 mph 1028.5mb 70f 67f
10:50am 4.5ft 15s 8s 9 11 mph 1028.5mb 70f 67f
10:40am 4.5ft  -  8s 4 9 mph 1028.4mb 70f 67f
10:30am  -   -   -  4 9 mph 1028.5mb 70f 67f
10:20am  -   -   -  4 11 mph 1028.5mb 70f 67f
10:10am  -   -   -  2 7 mph 1028.6mb 70f 67f
10:00am  -   -   -  2 7 mph 1028.6mb 69f 67f
9:50am 4.5ft 15s 8s 4 7 mph 1028.7mb 69f 67f
9:40am 4.5ft  -  8s 2 7 mph 1028.7mb 69f 67f
9:30am  -   -   -  2 4 mph 1028.7mb - 67f
9:20am  -   -   -  2 4 mph 1028.8mb 70f 67f
9:10am  -   -   -  4 9 mph 1028.9mb 70f 67f
9:00am  -   -   -  2 4 mph 1029mb 70f 67f
8:50am 4.5ft 15s 8s 4 7 mph 1029mb 70f 67f
8:40am 4.5ft  -  8s 4 9 mph 1029mb 70f 67f
8:30am  -   -   -  4 9 mph 1029.1mb 70f 67f
8:20am  -   -   -  4 9 mph 1029mb - 68f
8:10am  -   -   -  4 7 mph 1029.1mb 69f 67f
8:00am  -   -   -  2 4 mph 1029.1mb 69f 67f
7:50am 4.5ft 15s 8s 2 4 mph 1029.2mb 69f 68f
7:40am 4.5ft  -  8s  -  2 mph 1029.2mb 69f 67f
7:30am  -   -   -   -  2 mph 1029.2mb 69f 67f
7:20am  -   -   -  2 4 mph 1029.2mb 69f 67f
7:10am  -   -   -  4 9 mph 1029.2mb 69f 67f
7:00am  -   -   -  2 4 mph 1029.2mb 69f 67f
6:50am 4.5ft 9s 8s 2 4 mph 1029.2mb 69f 67f
6:40am 4.5ft  -  8s 2 9 mph 1029.2mb 69f 67f
6:30am  -   -   -   -  4 mph 1029.2mb 69f 67f
6:20am  -   -   -  4 9 mph 1029.2mb 69f 67f
6:10am  -   -   -  4 9 mph 1029.2mb 69f 67f
6:00am  -   -   -  2 4 mph 1029.2mb 69f 67f
5:50am 4.5ft 16s 8s 4 7 mph 1029.2mb 69f 67f
5:30am  -   -   -  4 9 mph 1029.2mb 69f 67f
5:20am  -   -   -  4 9 mph 1029.1mb 69f 67f
5:10am  -   -   -  7 9 mph 1029.1mb 69f 67f
5:00am  -   -   -  2 9 mph 1029mb 69f 67f
4:50am 4.5ft 16s 8s 2 4 mph 1028.9mb 69f 68f
4:40am 4.5ft  -  8s 4 7 mph 1028.9mb 69f 68f
4:30am  -   -   -  2 7 mph 1028.8mb 69f 67f
4:20am  -   -   -   -  2 mph 1028.8mb - 68f
4:10am  -   -   -  2 7 mph 1028.8mb 69f 67f
4:00am  -   -   -  4 7 mph 1028.7mb 69f 67f
3:50am 4.5ft 16s 8s 4 7 mph 1028.6mb 69f 67f
3:40am 4.5ft  -  8s 4 9 mph 1028.6mb 69f 68f
3:30am  -   -   -  2 7 mph 1028.5mb - 68f
3:20am  -   -   -  2 7 mph 1028.5mb 69f 67f
3:10am  -   -   -  2 4 mph 1028.5mb 69f 67f
3:00am  -   -   -  2 7 mph 1028.5mb 69f 67f
2:50am 4.5ft 16s 8s  -  2 mph 1028.5mb 69f 68f
2:40am 4.5ft  -  8s 2 4 mph 1028.5mb 69f 67f